createdAt,value
2018-04-15T00:02:13.854Z,99619.04
2018-04-15T00:04:41.428Z,99616.87
2018-04-15T00:07:09.135Z,99616.62
2018-04-15T00:09:36.752Z,99617.51
2018-04-15T00:12:04.337Z,99621.72
2018-04-15T00:14:31.911Z,99619.55
2018-04-15T00:16:59.643Z,99614.80
2018-04-15T00:19:27.204Z,99607.25
2018-04-15T00:21:54.776Z,99600.28
2018-04-15T00:24:22.347Z,99604.77
2018-04-15T00:26:50.117Z,99603.75
2018-04-15T00:29:17.937Z,99600.91
2018-04-15T00:31:45.505Z,99594.54
2018-04-15T00:34:13.275Z,99602.22
2018-04-15T00:36:40.840Z,99600.66
2018-04-15T00:39:08.470Z,99601.94
2018-04-15T00:41:36.033Z,99605.50
2018-04-15T00:44:03.617Z,99607.95
2018-04-15T00:46:31.327Z,99601.77
2018-04-15T00:48:59.044Z,99603.61
2018-04-15T00:51:26.616Z,99605.77
2018-04-15T00:54:05.945Z,99606.17
2018-04-15T00:56:33.567Z,99606.13
2018-04-15T00:59:01.183Z,99604.73
2018-04-15T01:01:28.809Z,99597.65
2018-04-15T01:03:56.629Z,99608.54
2018-04-15T01:06:24.195Z,99605.13
2018-04-15T01:08:51.783Z,99603.14
2018-04-15T01:11:19.584Z,99599.64
2018-04-15T01:13:47.160Z,99591.80
2018-04-15T01:16:14.727Z,99586.01
2018-04-15T01:18:42.538Z,99587.03
2018-04-15T01:21:10.130Z,99586.62
2018-04-15T01:23:37.710Z,99585.97
2018-04-15T01:26:05.469Z,99584.11
2018-04-15T01:28:33.035Z,99588.65
2018-04-15T01:31:00.828Z,99587.91
2018-04-15T01:33:28.647Z,99587.02
2018-04-15T01:35:56.274Z,99584.81
2018-04-15T01:38:23.844Z,99584.64
2018-04-15T01:40:51.405Z,99590.15
2018-04-15T01:43:18.991Z,99588.87
2018-04-15T01:45:46.557Z,99581.70
2018-04-15T01:48:14.133Z,99587.48
2018-04-15T01:50:41.697Z,99592.57
2018-04-15T01:53:09.312Z,99588.73
2018-04-15T01:55:36.868Z,99595.05
2018-04-15T01:58:04.433Z,99595.41
2018-04-15T02:00:32.242Z,99595.28
2018-04-15T02:02:59.801Z,99600.17
2018-04-15T02:05:27.579Z,99591.45
2018-04-15T02:07:55.299Z,99585.86
2018-04-15T02:10:22.918Z,99595.97
2018-04-15T02:12:50.476Z,99589.16
2018-04-15T02:15:18.013Z,99582.48
2018-04-15T02:17:45.584Z,99585.17
2018-04-15T02:20:13.149Z,99587.16
2018-04-15T02:22:40.877Z,99584.11
2018-04-15T02:25:08.598Z,99589.59
2018-04-15T02:27:36.217Z,99588.56
2018-04-15T02:30:03.853Z,99578.19
2018-04-15T02:32:31.679Z,99570.44
2018-04-15T02:34:59.287Z,99571.18
2018-04-15T02:37:26.906Z,99573.04
2018-04-15T02:39:54.490Z,99576.25
2018-04-15T02:42:22.084Z,99570.62
2018-04-15T02:44:49.871Z,99578.52
2018-04-15T02:47:17.454Z,99570.76
2018-04-15T02:49:45.020Z,99582.09
2018-04-15T02:52:12.700Z,99580.37
2018-04-15T02:54:40.423Z,99589.17
2018-04-15T02:57:08.135Z,99589.44
2018-04-15T02:59:35.700Z,99589.92
2018-04-15T03:02:03.324Z,99591.30
2018-04-15T03:04:30.893Z,99585.92
2018-04-15T03:06:58.442Z,99594.50
2018-04-15T03:09:26.011Z,99591.96
2018-04-15T03:11:53.735Z,99589.58
2018-04-15T03:14:22.156Z,99591.50
2018-04-15T03:16:49.734Z,99596.86
2018-04-15T03:19:17.356Z,99603.94
2018-04-15T03:21:44.912Z,99603.22
2018-04-15T03:24:12.760Z,99610.92
2018-04-15T03:26:40.337Z,99610.58
2018-04-15T03:29:07.891Z,99609.17
2018-04-15T03:31:35.461Z,99613.16
2018-04-15T03:34:03.015Z,99607.23
2018-04-15T03:36:30.848Z,99605.81
2018-04-15T03:38:58.668Z,99605.37
2018-04-15T03:41:26.228Z,99604.70
2018-04-15T03:43:54.012Z,99598.23
2018-04-15T03:46:21.600Z,99598.64
2018-04-15T03:48:49.169Z,99599.73
2018-04-15T03:51:16.960Z,99600.96
2018-04-15T03:53:44.591Z,99597.00
2018-04-15T03:56:12.161Z,99606.94
2018-04-15T03:58:39.878Z,99603.14
2018-04-15T04:01:07.445Z,99607.27
2018-04-15T04:03:35.016Z,99604.55
2018-04-15T04:06:02.580Z,99601.81
2018-04-15T04:08:30.151Z,99603.68
2018-04-15T04:10:57.780Z,99605.48
2018-04-15T04:13:25.723Z,99610.84
2018-04-15T04:15:53.312Z,99611.83
2018-04-15T04:21:39.955Z,99607.84
2018-04-15T04:24:19.515Z,99608.73
2018-04-15T04:26:47.141Z,99610.33
2018-04-15T04:29:14.704Z,99606.84
2018-04-15T04:31:42.264Z,99602.70
2018-04-15T04:34:10.087Z,99605.58
2018-04-15T04:36:37.805Z,99608.05
2018-04-15T04:39:06.200Z,99610.81
2018-04-15T04:41:33.924Z,99613.06
2018-04-15T04:44:01.636Z,99617.58
2018-04-15T04:46:29.223Z,99622.52
2018-04-15T04:48:56.999Z,99625.67
2018-04-15T04:51:24.607Z,99627.64
2018-04-15T04:53:52.169Z,99616.95
2018-04-15T04:56:19.952Z,99622.73
2018-04-15T04:58:47.513Z,99621.74
2018-04-15T05:01:15.181Z,99624.35
2018-04-15T05:03:42.791Z,99622.81
2018-04-15T05:06:10.486Z,99631.36
2018-04-15T05:08:38.243Z,99632.27
2018-04-15T05:11:05.817Z,99624.45
2018-04-15T05:13:33.583Z,99624.27
2018-04-15T05:16:01.278Z,99625.70
2018-04-15T05:18:28.836Z,99630.03
2018-04-15T05:20:56.404Z,99622.05
2018-04-15T05:23:23.964Z,99621.69
2018-04-15T05:25:52.527Z,99613.08
2018-04-15T05:28:20.264Z,99613.00
2018-04-15T05:30:47.900Z,99613.08
2018-04-15T05:33:15.438Z,99619.97
2018-04-15T05:35:43.148Z,99619.20
2018-04-15T05:38:10.963Z,99616.34
2018-04-15T05:40:38.509Z,99614.48
2018-04-15T05:43:06.093Z,99616.62
2018-04-15T05:45:33.818Z,99617.25
2018-04-15T05:48:01.529Z,99621.13
2018-04-15T05:50:29.095Z,99624.70
2018-04-15T05:52:56.648Z,99625.45
2018-04-15T05:55:24.220Z,99616.22
2018-04-15T05:57:51.892Z,99620.36
2018-04-15T06:00:19.726Z,99623.38
2018-04-15T06:02:47.280Z,99620.59
2018-04-15T06:05:14.894Z,99617.70
2018-04-15T06:07:42.459Z,99618.13
2018-04-15T06:10:10.197Z,99618.38
2018-04-15T06:12:37.784Z,99618.72
2018-04-15T06:15:05.369Z,99623.10
2018-04-15T06:17:33.151Z,99624.83
2018-04-15T06:20:00.722Z,99629.02
2018-04-15T06:22:28.340Z,99635.39
2018-04-15T06:24:55.897Z,99634.52
2018-04-15T06:27:23.597Z,99633.36
2018-04-15T06:29:51.314Z,99632.32
2018-04-15T06:32:19.031Z,99632.88
2018-04-15T06:34:46.748Z,99636.76
2018-04-15T06:37:14.465Z,99641.22
2018-04-15T06:39:42.085Z,99649.02
2018-04-15T06:42:09.832Z,99650.66
2018-04-15T06:44:37.541Z,99653.26
2018-04-15T06:47:05.368Z,99653.81
2018-04-15T06:49:32.928Z,99649.45
2018-04-15T06:52:00.504Z,99646.91
2018-04-15T06:54:28.056Z,99650.79
2018-04-15T06:56:55.673Z,99651.25
2018-04-15T06:59:23.459Z,99657.80
2018-04-15T07:01:51.035Z,99663.69
2018-04-15T07:04:18.620Z,99654.18
2018-04-15T07:06:46.412Z,99660.91
2018-04-15T07:09:14.008Z,99659.99
2018-04-15T07:11:41.728Z,99655.42
2018-04-15T07:14:09.376Z,99670.34
2018-04-15T07:16:36.951Z,99674.38
2018-04-15T07:19:04.512Z,99672.55
2018-04-15T07:21:32.100Z,99670.00
2018-04-15T07:23:59.668Z,99671.47
2018-04-15T07:26:27.348Z,99674.52
2018-04-15T07:28:54.914Z,99666.56
2018-04-15T07:31:22.535Z,99672.09
2018-04-15T07:33:50.282Z,99662.09
2018-04-15T07:36:17.872Z,99658.89
2018-04-15T07:38:45.647Z,99669.58
2018-04-15T07:41:13.262Z,99664.25
2018-04-15T07:43:41.084Z,99671.01
2018-04-15T07:46:08.902Z,99665.20
2018-04-15T07:48:36.512Z,99678.28
2018-04-15T07:51:04.238Z,99680.55
2018-04-15T07:53:31.957Z,99677.60
2018-04-15T07:55:59.528Z,99681.42
2018-04-15T07:58:27.089Z,99684.56
2018-04-15T08:00:54.913Z,99678.52
2018-04-15T08:03:22.472Z,99671.36
2018-04-15T08:05:50.093Z,99681.83
2018-04-15T08:08:17.660Z,99685.56
2018-04-15T08:10:45.484Z,99691.60
2018-04-15T08:13:13.066Z,99699.61
2018-04-15T08:15:40.633Z,99693.28
2018-04-15T08:18:08.199Z,99689.83
2018-04-15T08:20:35.772Z,99694.03
2018-04-15T08:23:03.418Z,99691.66
2018-04-15T08:25:31.190Z,99686.81
2018-04-15T08:27:58.744Z,99688.16
2018-04-15T08:30:26.313Z,99675.57
2018-04-15T08:32:53.889Z,99677.91
2018-04-15T08:35:21.468Z,99671.18
2018-04-15T08:37:49.281Z,99684.13
2018-04-15T08:40:17.109Z,99685.57
2018-04-15T08:42:44.673Z,99668.61
2018-04-15T08:45:12.396Z,99682.61
2018-04-15T08:47:39.976Z,99683.77
2018-04-15T08:50:07.754Z,99690.05
2018-04-15T08:52:35.493Z,99692.34
2018-04-15T08:55:03.309Z,99694.66
2018-04-15T08:57:30.921Z,99678.37
2018-04-15T08:59:58.647Z,99679.18
2018-04-15T09:02:26.465Z,99688.22
2018-04-15T09:04:54.074Z,99685.88
2018-04-15T09:07:21.650Z,99678.38
2018-04-15T09:09:49.388Z,99677.64
2018-04-15T09:12:17.001Z,99664.51
2018-04-15T09:14:44.600Z,99657.38
2018-04-15T09:17:12.160Z,99663.19
2018-04-15T09:19:39.724Z,99659.96
2018-04-15T09:22:07.317Z,99661.05
2018-04-15T09:24:34.909Z,99664.80
2018-04-15T09:27:02.472Z,99667.24
2018-04-15T09:29:30.092Z,99667.52
2018-04-15T09:31:57.697Z,99667.50
2018-04-15T09:34:25.291Z,99664.64
2018-04-15T09:36:52.865Z,99650.02
2018-04-15T09:39:20.440Z,99669.61
2018-04-15T09:41:48.004Z,99675.21
2018-04-15T09:44:15.605Z,99681.19
2018-04-15T09:46:43.388Z,99678.72
2018-04-15T09:49:11.209Z,99652.76
2018-04-15T09:51:38.763Z,99638.22
2018-04-15T09:54:06.539Z,99653.05
2018-04-15T09:56:34.121Z,99641.00
2018-04-15T09:59:01.759Z,99642.63
2018-04-15T10:01:29.412Z,99644.57
2018-04-15T10:03:56.983Z,99625.48
2018-04-15T10:06:24.548Z,99622.02
2018-04-15T10:08:52.349Z,99632.34
2018-04-15T10:11:20.165Z,99624.11
2018-04-15T10:13:47.884Z,99619.25
2018-04-15T10:16:15.703Z,99614.40
2018-04-15T10:18:43.261Z,99603.73
2018-04-15T10:21:10.829Z,99607.45
2018-04-15T10:23:38.376Z,99621.38
2018-04-15T10:26:06.175Z,99607.77
2018-04-15T10:28:33.755Z,99611.57
2018-04-15T10:31:01.332Z,99606.52
2018-04-15T10:33:28.919Z,99600.14
2018-04-15T10:35:56.647Z,99607.71
2018-04-15T10:38:24.467Z,99610.53
2018-04-15T10:40:52.039Z,99614.06
2018-04-15T10:43:19.589Z,99611.48
2018-04-15T10:45:47.322Z,99583.96
2018-04-15T10:48:14.884Z,99602.44
2018-04-15T10:50:42.561Z,99593.05
2018-04-15T10:53:10.276Z,99592.94
2018-04-15T10:55:37.844Z,99586.64
2018-04-15T10:58:05.427Z,99596.47
2018-04-15T11:00:33.027Z,99594.77
2018-04-15T11:03:00.851Z,99586.00
2018-04-15T11:05:28.409Z,99590.92
2018-04-15T11:07:56.186Z,99589.64
2018-04-15T11:10:23.753Z,99570.20
2018-04-15T11:12:51.364Z,99577.38
2018-04-15T11:15:19.139Z,99579.30
2018-04-15T11:17:46.705Z,99576.35
2018-04-15T11:20:14.324Z,99580.83
2018-04-15T11:22:42.176Z,99570.22
2018-04-15T11:25:09.911Z,99585.78
2018-04-15T11:27:37.495Z,99574.72
2018-04-15T11:30:05.116Z,99575.88
2018-04-15T11:32:32.718Z,99570.23
2018-04-15T11:35:00.294Z,99568.79
2018-04-15T11:37:27.938Z,99582.24
2018-04-15T11:39:55.490Z,99567.47
2018-04-15T11:42:23.237Z,99579.09
2018-04-15T11:44:50.827Z,99565.42
2018-04-15T11:47:18.435Z,99568.59
2018-04-15T11:49:46.043Z,99571.84
2018-04-15T11:52:13.601Z,99569.55
2018-04-15T11:54:41.220Z,99574.37
2018-04-15T11:57:08.780Z,99558.78
2018-04-15T11:59:36.332Z,99565.53
2018-04-15T12:02:03.971Z,99568.29
2018-04-15T12:04:31.663Z,99572.85
2018-04-15T12:06:59.238Z,99568.42
2018-04-15T12:09:26.804Z,99559.64
2018-04-15T12:11:54.408Z,99551.31
2018-04-15T12:14:21.977Z,99555.14
2018-04-15T12:16:49.796Z,99553.45
2018-04-15T12:19:17.351Z,99540.67
2018-04-15T12:21:45.123Z,99541.94
2018-04-15T12:24:12.943Z,99540.73
2018-04-15T12:26:40.550Z,99545.59
2018-04-15T12:29:08.168Z,99546.82
2018-04-15T12:31:35.897Z,99541.80
2018-04-15T12:34:03.460Z,99550.23
2018-04-15T12:36:31.030Z,99554.84
2018-04-15T12:38:58.595Z,99546.07
2018-04-15T12:41:26.369Z,99547.92
2018-04-15T12:43:53.929Z,99547.33
2018-04-15T12:46:21.536Z,99542.66
2018-04-15T12:48:49.096Z,99554.12
2018-04-15T12:51:16.811Z,99536.85
2018-04-15T12:53:44.394Z,99530.15
2018-04-15T12:56:11.949Z,99539.74
2018-04-15T12:58:39.799Z,99533.72
2018-04-15T13:01:07.348Z,99539.33
2018-04-15T13:03:34.988Z,99526.02
2018-04-15T13:06:02.752Z,99525.74
2018-04-15T13:08:30.302Z,99517.97
2018-04-15T13:10:57.910Z,99527.80
2018-04-15T13:13:25.489Z,99528.38
2018-04-15T13:15:53.321Z,99527.77
2018-04-15T13:18:20.882Z,99522.88
2018-04-15T13:20:48.495Z,99518.19
2018-04-15T13:23:16.038Z,99526.16
2018-04-15T13:25:43.621Z,99518.05
2018-04-15T13:28:11.188Z,99518.21
2018-04-15T13:30:38.929Z,99508.75
2018-04-15T13:33:06.492Z,99510.46
2018-04-15T13:35:34.044Z,99518.95
2018-04-15T13:38:01.669Z,99513.37
2018-04-15T13:40:29.401Z,99515.91
2018-04-15T13:42:57.119Z,99517.31
2018-04-15T13:45:24.938Z,99506.47
2018-04-15T13:47:52.524Z,99509.88
2018-04-15T13:50:20.101Z,99510.47
2018-04-15T13:52:47.656Z,99492.97
2018-04-15T13:55:15.307Z,99494.69
2018-04-15T13:57:43.028Z,99486.69
2018-04-15T14:00:10.584Z,99504.00
2018-04-15T14:02:38.364Z,99497.36
2018-04-15T14:05:06.085Z,99485.58
2018-04-15T14:07:33.660Z,99491.39
2018-04-15T14:10:01.208Z,99486.55
2018-04-15T14:12:28.916Z,99474.78
2018-04-15T14:14:56.481Z,99480.61
2018-04-15T14:17:24.072Z,99484.56
2018-04-15T14:19:51.640Z,99473.13
2018-04-15T14:22:19.228Z,99477.13
2018-04-15T14:24:46.815Z,99474.02
2018-04-15T14:27:14.367Z,99463.75
2018-04-15T14:29:41.977Z,99463.41
2018-04-15T14:32:09.529Z,99474.96
2018-04-15T14:34:37.087Z,99499.97
2018-04-15T14:37:04.668Z,99478.42
2018-04-15T14:39:32.223Z,99484.95
2018-04-15T14:41:59.803Z,99476.08
2018-04-15T14:44:27.568Z,99477.42
2018-04-15T14:46:55.189Z,99472.12
2018-04-15T14:49:22.761Z,99477.96
2018-04-15T14:51:50.522Z,99468.67
2018-04-15T14:54:18.090Z,99463.23
2018-04-15T14:56:45.859Z,99458.88
2018-04-15T14:59:13.445Z,99446.42
2018-04-15T15:01:41.045Z,99456.11
2018-04-15T15:04:08.692Z,99464.45
2018-04-15T15:06:36.413Z,99463.70
2018-04-15T15:09:04.052Z,99455.76
2018-04-15T15:11:31.620Z,99461.67
2018-04-15T15:13:59.191Z,99454.38
2018-04-15T15:16:27.003Z,99457.55
2018-04-15T15:18:54.546Z,99463.35
2018-04-15T15:21:22.141Z,99451.91
2018-04-15T15:23:49.748Z,99451.38
2018-04-15T15:26:17.447Z,99458.19
2018-04-15T15:28:45.031Z,99460.80
2018-04-15T15:31:12.593Z,99446.33
2018-04-15T15:33:40.234Z,99454.72
2018-04-15T15:36:08.049Z,99458.76
2018-04-15T15:38:35.660Z,99454.97
2018-04-15T15:41:03.347Z,99447.41
2018-04-15T15:43:30.904Z,99450.56
2018-04-15T15:45:58.469Z,99459.45
2018-04-15T15:48:26.033Z,99453.02
2018-04-15T15:50:53.856Z,99460.95
2018-04-15T15:53:21.448Z,99469.53
2018-04-15T15:55:49.073Z,99462.48
2018-04-15T15:58:16.688Z,99457.25
2018-04-15T16:00:44.259Z,99463.94
2018-04-15T16:03:12.045Z,99467.13
2018-04-15T16:05:39.609Z,99460.90
2018-04-15T16:08:07.172Z,99469.89
2018-04-15T16:10:34.728Z,99469.26
2018-04-15T16:13:02.353Z,99462.64
2018-04-15T16:15:29.925Z,99469.50
2018-04-15T16:17:57.490Z,99464.75
2018-04-15T16:20:25.054Z,99462.38
2018-04-15T16:22:52.618Z,99466.42
2018-04-15T16:25:20.406Z,99457.10
2018-04-15T16:27:48.225Z,99461.34
2018-04-15T16:30:15.943Z,99460.52
2018-04-15T16:32:43.763Z,99469.70
2018-04-15T16:35:11.324Z,99475.18
2018-04-15T16:37:39.059Z,99481.64
2018-04-15T16:40:06.737Z,99485.42
2018-04-15T16:42:34.332Z,99484.02
2018-04-15T16:45:01.913Z,99475.63
2018-04-15T16:47:29.628Z,99476.38
2018-04-15T16:49:57.273Z,99482.91
2018-04-15T16:52:24.837Z,99480.33
2018-04-15T16:54:52.464Z,99481.08
2018-04-15T16:57:20.049Z,99484.81
2018-04-15T16:59:47.779Z,99479.98
2018-04-15T17:02:15.353Z,99483.05
2018-04-15T17:04:42.923Z,99485.23
2018-04-15T17:07:10.713Z,99488.80
2018-04-15T17:09:38.289Z,99490.08
2018-04-15T17:12:06.151Z,99493.31
2018-04-15T17:14:33.709Z,99493.58
2018-04-15T17:17:01.488Z,99488.33
2018-04-15T17:19:29.305Z,99492.13
2018-04-15T17:21:56.869Z,99494.28
2018-04-15T17:24:24.475Z,99495.37
2018-04-15T17:26:52.042Z,99496.23
2018-04-15T17:29:19.684Z,99494.78
2018-04-15T17:31:47.453Z,99498.69
2018-04-15T17:34:15.017Z,99497.50
2018-04-15T17:36:42.617Z,99497.45
2018-04-15T17:39:10.190Z,99496.98
2018-04-15T17:41:37.768Z,99503.33
2018-04-15T17:44:05.340Z,99502.14
2018-04-15T17:46:32.952Z,99502.01
2018-04-15T17:49:00.513Z,99504.65
2018-04-15T17:51:28.340Z,99506.52
2018-04-15T17:53:56.045Z,99510.11
2018-04-15T17:56:23.659Z,99508.63
2018-04-15T17:58:51.429Z,99514.40
2018-04-15T18:01:19.211Z,99511.89
2018-04-15T18:03:46.824Z,99516.01
2018-04-15T18:06:14.548Z,99520.27
2018-04-15T18:08:42.109Z,99519.55
2018-04-15T18:11:09.843Z,99519.24
2018-04-15T18:13:37.407Z,99514.53
2018-04-15T18:16:04.996Z,99510.75
2018-04-15T18:18:32.719Z,99505.27
2018-04-15T18:21:00.359Z,99508.34
2018-04-15T18:23:28.175Z,99501.09
2018-04-15T18:25:55.762Z,99507.09
2018-04-15T18:28:23.610Z,99501.52
2018-04-15T18:30:51.179Z,99506.84
2018-04-15T18:33:19.044Z,99502.47
2018-04-15T18:35:46.736Z,99489.64
2018-04-15T18:38:14.300Z,99496.16
2018-04-15T18:40:41.872Z,99487.66
2018-04-15T18:43:09.587Z,99486.28
2018-04-15T18:45:37.248Z,99477.06
2018-04-15T18:48:04.819Z,99470.34
2018-04-15T18:50:32.467Z,99467.16
2018-04-15T18:53:00.045Z,99459.61
2018-04-15T18:55:27.604Z,99465.68
2018-04-15T18:57:55.429Z,99460.45
2018-04-15T19:00:23.248Z,99457.33
2018-04-15T19:02:50.802Z,99456.52
2018-04-15T19:05:18.695Z,99459.80
2018-04-15T19:07:46.503Z,99468.56
2018-04-15T19:10:14.222Z,99474.59
2018-04-15T19:12:41.954Z,99479.53
2018-04-15T19:15:09.506Z,99477.31
2018-04-15T19:17:37.276Z,99476.77
2018-04-15T19:20:04.883Z,99478.98
2018-04-15T19:22:32.453Z,99479.92
2018-04-15T19:25:00.069Z,99481.11
2018-04-15T19:27:27.848Z,99480.45
2018-04-15T19:29:55.408Z,99473.63
2018-04-15T19:32:22.981Z,99480.40
2018-04-15T19:34:50.702Z,99478.46
2018-04-15T19:37:18.520Z,99479.31
2018-04-15T19:39:46.076Z,99485.78
2018-04-15T19:42:13.693Z,99478.61
2018-04-15T19:44:41.256Z,99485.97
2018-04-15T19:47:08.978Z,99482.30
2018-04-15T19:49:36.548Z,99492.19
2018-04-15T19:52:04.209Z,99483.33
2018-04-15T19:54:31.802Z,99483.06
2018-04-15T19:56:59.365Z,99487.92
2018-04-15T19:59:26.968Z,99483.70
2018-04-15T20:01:54.529Z,99486.27
2018-04-15T20:04:22.105Z,99481.91
2018-04-15T20:06:49.676Z,99481.30
2018-04-15T20:09:17.247Z,99479.12
2018-04-15T20:11:44.820Z,99477.14
2018-04-15T20:14:12.452Z,99466.78
2018-04-15T20:16:40.297Z,99467.86
2018-04-15T20:19:08.041Z,99461.09
2018-04-15T20:21:35.637Z,99468.72
2018-04-15T20:24:03.236Z,99461.13
2018-04-15T20:26:30.796Z,99465.08
2018-04-15T20:28:58.413Z,99454.89
2018-04-15T20:31:25.949Z,99466.32
2018-04-15T20:33:53.504Z,99459.98
2018-04-15T20:36:21.076Z,99458.47
2018-04-15T20:38:48.639Z,99450.56
2018-04-15T20:41:16.280Z,99443.84
2018-04-15T20:43:43.862Z,99446.91
2018-04-15T20:46:11.424Z,99442.57
2018-04-15T20:48:39.001Z,99445.00
2018-04-15T20:51:06.733Z,99447.64
2018-04-15T20:53:34.401Z,99437.14
2018-04-15T20:56:02.198Z,99441.20
2018-04-15T20:58:29.768Z,99440.06
2018-04-15T21:00:57.423Z,99442.31
2018-04-15T21:03:25.024Z,99440.19
2018-04-15T21:05:52.677Z,99440.05
2018-04-15T21:08:20.257Z,99423.88
2018-04-15T21:10:47.963Z,99438.66
2018-04-15T21:13:15.680Z,99435.41
2018-04-15T21:15:43.397Z,99433.19
2018-04-15T21:18:11.014Z,99428.20
2018-04-15T21:20:38.755Z,99413.13
2018-04-15T21:23:06.338Z,99413.82
2018-04-15T21:25:33.912Z,99406.73
2018-04-15T21:28:01.730Z,99409.11
2018-04-15T21:30:29.551Z,99414.97
2018-04-15T21:32:57.267Z,99403.78
2018-04-15T21:35:24.828Z,99411.81
2018-04-15T21:37:52.518Z,99409.05
2018-04-15T21:40:20.200Z,99403.39
2018-04-15T21:42:47.820Z,99401.73
2018-04-15T21:45:15.524Z,99408.48
2018-04-15T21:47:43.120Z,99403.22
2018-04-15T21:50:10.855Z,99408.41
2018-04-15T21:52:38.441Z,99416.63
2018-04-15T21:55:06.332Z,99421.81
2018-04-15T21:57:33.900Z,99425.44
2018-04-15T22:00:01.767Z,99414.52
2018-04-15T22:02:29.392Z,99402.95
2018-04-15T22:04:56.997Z,99403.20
2018-04-15T22:07:24.582Z,99396.72
2018-04-15T22:09:52.139Z,99403.80
2018-04-15T22:12:19.957Z,99401.13
2018-04-15T22:14:47.572Z,99399.09
2018-04-15T22:17:15.104Z,99386.04
2018-04-15T22:19:42.912Z,99389.09
2018-04-15T22:22:10.628Z,99392.30
2018-04-15T22:24:38.248Z,99387.79
2018-04-15T22:27:06.067Z,99394.62
2018-04-15T22:29:33.633Z,99386.66
2018-04-15T22:32:01.285Z,99399.47
2018-04-15T22:34:28.836Z,99390.94
2018-04-15T22:36:56.412Z,99390.21
2018-04-15T22:39:24.052Z,99397.43
2018-04-15T22:41:51.602Z,99405.15
2018-04-15T22:44:19.169Z,99397.43
2018-04-15T22:46:46.734Z,99397.91
2018-04-15T22:49:19.872Z,99397.18
2018-04-15T22:51:47.450Z,99408.11
2018-04-15T22:54:15.048Z,99401.61
2018-04-15T22:56:43.448Z,99394.47
2018-04-15T22:59:11.028Z,99399.00
2018-04-15T23:01:38.839Z,99391.28
2018-04-15T23:04:06.401Z,99381.98
2018-04-15T23:06:34.175Z,99382.56
2018-04-15T23:09:01.741Z,99380.02
2018-04-15T23:11:29.293Z,99380.84
2018-04-15T23:13:57.029Z,99380.38
2018-04-15T23:16:24.835Z,99381.92
2018-04-15T23:18:52.666Z,99376.52
2018-04-15T23:21:20.241Z,99378.38
2018-04-15T23:23:47.801Z,99366.83
2018-04-15T23:26:15.369Z,99359.34
2018-04-15T23:28:42.933Z,99347.86
2018-04-15T23:31:10.494Z,99362.65
2018-04-15T23:33:38.067Z,99363.20
2018-04-15T23:36:05.661Z,99365.03
2018-04-15T23:38:33.296Z,99359.69
2018-04-15T23:41:00.858Z,99372.98
2018-04-15T23:43:28.430Z,99367.56
2018-04-15T23:45:55.985Z,99362.81
2018-04-15T23:48:23.556Z,99357.20
2018-04-15T23:50:51.129Z,99353.85
2018-04-15T23:53:18.693Z,99359.77
2018-04-15T23:55:46.271Z,99363.94
2018-04-15T23:58:13.879Z,99364.36
